Clinton, Massachusetts
Current Conditions -  °F | °C
As of 3:52 AM on Sunday 26 Oct 2014 (Local Time) from KFIT Reporting Station
Clear Clear  
Wind Chill: 52°   Ceiling: Unl
Heat Index: 52°   Visibility: 10mi
Dew Point: 42°   Wind: 8mph
Humidity: 69%   Direction: 150°SSE
Pressure: 29.44"   Gusts: NA
Location:  42.42°N, 71.68°W
Report Text: KFIT 260752Z AUTO 15007KT 10SM CLR 11/06 A2944 RMK AO2 SLP971 T01110056
Loading
Personal Weather Stations






























Interactive Weather Map
Tropical Storm Tracking
New forecast layout! Learn more

10-Day Weather Forecast

Advertisements
Track Severe Weather on mobile